sensor_id;sensor_type;location;lat;lon;timestamp;temperature;humidity
58582;DHT22;44361;51.476;5.700;2023-04-03T00:00:48;1.00;99.90
58582;DHT22;44361;51.476;5.700;2023-04-03T00:03:15;1.10;99.90
58582;DHT22;44361;51.476;5.700;2023-04-03T00:05:41;1.00;99.90
58582;DHT22;44361;51.476;5.700;2023-04-03T00:08:07;1.00;99.90
58582;DHT22;44361;51.476;5.700;2023-04-03T00:10:35;1.00;99.90
58582;DHT22;44361;51.476;5.700;2023-04-03T00:13:01;1.00;99.90
58582;DHT22;44361;51.476;5.700;2023-04-03T00:15:26;1.00;99.90
58582;DHT22;44361;51.476;5.700;2023-04-03T00:17:52;1.00;99.90
58582;DHT22;44361;51.476;5.700;2023-04-03T00:20:17;1.00;99.90
58582;DHT22;44361;51.476;5.700;2023-04-03T00:22:43;0.90;99.90
58582;DHT22;44361;51.476;5.700;2023-04-03T00:25:09;0.90;99.90
58582;DHT22;44361;51.476;5.700;2023-04-03T00:27:37;0.80;99.90
58582;DHT22;44361;51.476;5.700;2023-04-03T00:30:03;0.80;99.90
58582;DHT22;44361;51.476;5.700;2023-04-03T00:32:29;0.70;99.90
58582;DHT22;44361;51.476;5.700;2023-04-03T00:34:55;0.80;99.90
58582;DHT22;44361;51.476;5.700;2023-04-03T00:37:20;0.80;99.90
58582;DHT22;44361;51.476;5.700;2023-04-03T00:39:46;0.80;99.90
58582;DHT22;44361;51.476;5.700;2023-04-03T00:42:11;0.80;99.90
58582;DHT22;44361;51.476;5.700;2023-04-03T00:47:04;0.80;99.90
58582;DHT22;44361;51.476;5.700;2023-04-03T00:49:31;0.70;99.90
58582;DHT22;44361;51.476;5.700;2023-04-03T00:51:57;0.70;99.90
58582;DHT22;44361;51.476;5.700;2023-04-03T00:54:23;0.80;99.90
58582;DHT22;44361;51.476;5.700;2023-04-03T00:56:51;0.80;99.90
58582;DHT22;44361;51.476;5.700;2023-04-03T00:59:22;0.70;99.90
58582;DHT22;44361;51.476;5.700;2023-04-03T01:01:51;0.70;99.90
58582;DHT22;44361;51.476;5.700;2023-04-03T01:07:00;0.70;99.90
58582;DHT22;44361;51.476;5.700;2023-04-03T01:09:27;0.60;99.90
58582;DHT22;44361;51.476;5.700;2023-04-03T01:11:53;0.50;99.90
58582;DHT22;44361;51.476;5.700;2023-04-03T01:14:19;0.50;99.90
58582;DHT22;44361;51.476;5.700;2023-04-03T01:16:54;0.60;99.90
58582;DHT22;44361;51.476;5.700;2023-04-03T01:19:22;0.60;99.90
58582;DHT22;44361;51.476;5.700;2023-04-03T01:21:58;0.70;99.90
58582;DHT22;44361;51.476;5.700;2023-04-03T01:24:34;0.70;99.90
58582;DHT22;44361;51.476;5.700;2023-04-03T01:27:03;0.60;99.90
58582;DHT22;44361;51.476;5.700;2023-04-03T01:29:29;0.60;99.90
58582;DHT22;44361;51.476;5.700;2023-04-03T01:31:59;0.60;99.90
58582;DHT22;44361;51.476;5.700;2023-04-03T01:34:26;0.70;99.90
58582;DHT22;44361;51.476;5.700;2023-04-03T01:36:52;0.60;99.90
58582;DHT22;44361;51.476;5.700;2023-04-03T01:39:18;0.60;99.90
58582;DHT22;44361;51.476;5.700;2023-04-03T01:41:44;0.60;99.90
58582;DHT22;44361;51.476;5.700;2023-04-03T01:44:10;0.60;99.90
58582;DHT22;44361;51.476;5.700;2023-04-03T01:46:35;0.50;99.90
58582;DHT22;44361;51.476;5.700;2023-04-03T01:49:03;0.60;99.90
58582;DHT22;44361;51.476;5.700;2023-04-03T01:51:28;0.60;99.90
58582;DHT22;44361;51.476;5.700;2023-04-03T01:53:54;0.60;99.90
58582;DHT22;44361;51.476;5.700;2023-04-03T01:56:20;0.60;99.90
58582;DHT22;44361;51.476;5.700;2023-04-03T01:58:45;0.60;99.90
58582;DHT22;44361;51.476;5.700;2023-04-03T02:01:11;0.60;99.90
58582;DHT22;44361;51.476;5.700;2023-04-03T02:03:36;0.60;99.90
58582;DHT22;44361;51.476;5.700;2023-04-03T02:06:02;0.60;99.90
58582;DHT22;44361;51.476;5.700;2023-04-03T02:08:28;0.50;99.90
58582;DHT22;44361;51.476;5.700;2023-04-03T02:10:53;0.50;99.90
58582;DHT22;44361;51.476;5.700;2023-04-03T02:13:19;0.60;99.90
58582;DHT22;44361;51.476;5.700;2023-04-03T02:15:44;0.60;99.90
58582;DHT22;44361;51.476;5.700;2023-04-03T02:18:11;0.60;99.90
58582;DHT22;44361;51.476;5.700;2023-04-03T02:20:36;0.60;99.90
58582;DHT22;44361;51.476;5.700;2023-04-03T02:23:02;0.60;99.90
58582;DHT22;44361;51.476;5.700;2023-04-03T02:25:27;0.60;99.90
58582;DHT22;44361;51.476;5.700;2023-04-03T02:27:53;0.70;99.90
58582;DHT22;44361;51.476;5.700;2023-04-03T02:30:19;0.70;99.90
58582;DHT22;44361;51.476;5.700;2023-04-03T02:32:45;0.80;99.90
58582;DHT22;44361;51.476;5.700;2023-04-03T02:35:11;0.70;99.90
58582;DHT22;44361;51.476;5.700;2023-04-03T02:37:37;0.80;99.90
58582;DHT22;44361;51.476;5.700;2023-04-03T02:40:03;0.90;99.90
58582;DHT22;44361;51.476;5.700;2023-04-03T02:42:29;0.80;99.90
58582;DHT22;44361;51.476;5.700;2023-04-03T02:44:55;0.70;99.90
58582;DHT22;44361;51.476;5.700;2023-04-03T02:47:21;0.70;99.90
58582;DHT22;44361;51.476;5.700;2023-04-03T02:49:46;0.70;99.90
58582;DHT22;44361;51.476;5.700;2023-04-03T02:52:13;0.60;99.90
58582;DHT22;44361;51.476;5.700;2023-04-03T02:54:39;0.70;99.90
58582;DHT22;44361;51.476;5.700;2023-04-03T02:57:04;0.70;99.90
58582;DHT22;44361;51.476;5.700;2023-04-03T02:59:30;0.80;99.90
58582;DHT22;44361;51.476;5.700;2023-04-03T03:01:55;0.70;99.90
58582;DHT22;44361;51.476;5.700;2023-04-03T03:04:22;0.70;99.90
58582;DHT22;44361;51.476;5.700;2023-04-03T03:06:47;0.70;99.90
58582;DHT22;44361;51.476;5.700;2023-04-03T03:09:13;0.70;99.90
58582;DHT22;44361;51.476;5.700;2023-04-03T03:11:39;0.70;99.90
58582;DHT22;44361;51.476;5.700;2023-04-03T03:14:04;0.80;99.90
58582;DHT22;44361;51.476;5.700;2023-04-03T03:16:30;0.80;99.90
58582;DHT22;44361;51.476;5.700;2023-04-03T03:18:56;0.80;99.90
58582;DHT22;44361;51.476;5.700;2023-04-03T03:21:22;0.80;99.90
58582;DHT22;44361;51.476;5.700;2023-04-03T03:23:47;0.70;99.90
58582;DHT22;44361;51.476;5.700;2023-04-03T03:26:13;0.80;99.90
58582;DHT22;44361;51.476;5.700;2023-04-03T03:28:39;0.70;99.90
58582;DHT22;44361;51.476;5.700;2023-04-03T03:31:05;0.70;99.90
58582;DHT22;44361;51.476;5.700;2023-04-03T03:33:31;0.60;99.90
58582;DHT22;44361;51.476;5.700;2023-04-03T03:35:57;0.60;99.90
58582;DHT22;44361;51.476;5.700;2023-04-03T03:38:23;0.60;99.90
58582;DHT22;44361;51.476;5.700;2023-04-03T03:40:50;0.60;99.90
58582;DHT22;44361;51.476;5.700;2023-04-03T03:43:16;0.60;99.90
58582;DHT22;44361;51.476;5.700;2023-04-03T03:45:42;0.50;99.90
58582;DHT22;44361;51.476;5.700;2023-04-03T03:48:08;0.50;99.90
58582;DHT22;44361;51.476;5.700;2023-04-03T03:50:33;0.60;99.90
58582;DHT22;44361;51.476;5.700;2023-04-03T03:53:00;0.60;99.90
58582;DHT22;44361;51.476;5.700;2023-04-03T03:55:26;0.60;99.90
58582;DHT22;44361;51.476;5.700;2023-04-03T03:57:51;0.50;99.90
58582;DHT22;44361;51.476;5.700;2023-04-03T04:00:17;0.40;99.90
58582;DHT22;44361;51.476;5.700;2023-04-03T04:02:43;0.40;99.90
58582;DHT22;44361;51.476;5.700;2023-04-03T04:05:09;0.40;99.90
58582;DHT22;44361;51.476;5.700;2023-04-03T04:07:34;0.40;99.90
58582;DHT22;44361;51.476;5.700;2023-04-03T04:10:00;0.30;99.90
58582;DHT22;44361;51.476;5.700;2023-04-03T04:12:25;0.30;99.90
58582;DHT22;44361;51.476;5.700;2023-04-03T04:14:51;0.30;99.90
58582;DHT22;44361;51.476;5.700;2023-04-03T04:17:16;0.30;99.90
58582;DHT22;44361;51.476;5.700;2023-04-03T04:19:42;0.30;99.90
58582;DHT22;44361;51.476;5.700;2023-04-03T04:22:07;0.30;99.90
58582;DHT22;44361;51.476;5.700;2023-04-03T04:24:33;0.40;99.90
58582;DHT22;44361;51.476;5.700;2023-04-03T04:26:58;0.40;99.90
58582;DHT22;44361;51.476;5.700;2023-04-03T04:29:24;0.40;99.90
58582;DHT22;44361;51.476;5.700;2023-04-03T04:31:50;0.40;99.90
58582;DHT22;44361;51.476;5.700;2023-04-03T04:34:15;0.30;99.90
58582;DHT22;44361;51.476;5.700;2023-04-03T04:36:41;0.30;99.90
58582;DHT22;44361;51.476;5.700;2023-04-03T04:39:06;0.40;99.90
58582;DHT22;44361;51.476;5.700;2023-04-03T04:41:32;0.40;99.90
58582;DHT22;44361;51.476;5.700;2023-04-03T04:43:58;0.30;99.90
58582;DHT22;44361;51.476;5.700;2023-04-03T04:46:24;0.30;99.90
58582;DHT22;44361;51.476;5.700;2023-04-03T04:48:49;0.40;99.90
58582;DHT22;44361;51.476;5.700;2023-04-03T04:51:15;0.40;99.90
58582;DHT22;44361;51.476;5.700;2023-04-03T04:53:41;0.40;99.90
58582;DHT22;44361;51.476;5.700;2023-04-03T04:56:08;0.50;99.90
58582;DHT22;44361;51.476;5.700;2023-04-03T04:58:34;0.50;99.90
58582;DHT22;44361;51.476;5.700;2023-04-03T05:01:05;0.50;99.90
58582;DHT22;44361;51.476;5.700;2023-04-03T05:03:31;0.60;99.90
58582;DHT22;44361;51.476;5.700;2023-04-03T05:05:56;0.50;99.90
58582;DHT22;44361;51.476;5.700;2023-04-03T05:08:23;0.50;99.90
58582;DHT22;44361;51.476;5.700;2023-04-03T05:10:48;0.60;99.90
58582;DHT22;44361;51.476;5.700;2023-04-03T05:13:14;0.60;99.90
58582;DHT22;44361;51.476;5.700;2023-04-03T05:15:40;0.60;99.90
58582;DHT22;44361;51.476;5.700;2023-04-03T05:18:05;0.70;99.90
58582;DHT22;44361;51.476;5.700;2023-04-03T05:20:32;0.70;99.90
58582;DHT22;44361;51.476;5.700;2023-04-03T05:22:58;0.70;99.90
58582;DHT22;44361;51.476;5.700;2023-04-03T05:25:24;0.70;99.90
58582;DHT22;44361;51.476;5.700;2023-04-03T05:27:50;0.70;99.90
58582;DHT22;44361;51.476;5.700;2023-04-03T05:30:16;0.90;99.90
58582;DHT22;44361;51.476;5.700;2023-04-03T05:32:41;1.10;99.90
58582;DHT22;44361;51.476;5.700;2023-04-03T05:35:08;1.30;99.90
58582;DHT22;44361;51.476;5.700;2023-04-03T05:37:34;1.30;99.90
58582;DHT22;44361;51.476;5.700;2023-04-03T05:39:59;1.40;99.90
58582;DHT22;44361;51.476;5.700;2023-04-03T05:42:25;1.30;99.90
58582;DHT22;44361;51.476;5.700;2023-04-03T05:44:51;1.20;99.90
58582;DHT22;44361;51.476;5.700;2023-04-03T05:47:17;1.20;99.90
58582;DHT22;44361;51.476;5.700;2023-04-03T05:49:43;1.30;99.90
58582;DHT22;44361;51.476;5.700;2023-04-03T05:52:35;1.40;99.90
58582;DHT22;44361;51.476;5.700;2023-04-03T05:55:01;1.50;99.90
58582;DHT22;44361;51.476;5.700;2023-04-03T05:57:26;1.70;99.90
58582;DHT22;44361;51.476;5.700;2023-04-03T05:59:52;1.70;99.90
58582;DHT22;44361;51.476;5.700;2023-04-03T06:02:20;1.80;99.90
58582;DHT22;44361;51.476;5.700;2023-04-03T06:04:46;1.90;99.90
58582;DHT22;44361;51.476;5.700;2023-04-03T06:07:15;1.90;99.90
58582;DHT22;44361;51.476;5.700;2023-04-03T06:09:41;2.00;99.90
58582;DHT22;44361;51.476;5.700;2023-04-03T06:12:07;2.20;99.90
58582;DHT22;44361;51.476;5.700;2023-04-03T06:14:32;2.20;99.90
58582;DHT22;44361;51.476;5.700;2023-04-03T06:16:58;2.20;99.90
58582;DHT22;44361;51.476;5.700;2023-04-03T06:19:24;2.30;99.90
58582;DHT22;44361;51.476;5.700;2023-04-03T06:21:50;2.30;99.90
58582;DHT22;44361;51.476;5.700;2023-04-03T06:24:17;2.30;99.90
58582;DHT22;44361;51.476;5.700;2023-04-03T06:26:43;2.40;99.90
58582;DHT22;44361;51.476;5.700;2023-04-03T06:29:09;2.40;99.90
58582;DHT22;44361;51.476;5.700;2023-04-03T06:31:35;2.30;99.90
58582;DHT22;44361;51.476;5.700;2023-04-03T06:34:02;2.40;99.90
58582;DHT22;44361;51.476;5.700;2023-04-03T06:36:28;2.40;99.90
58582;DHT22;44361;51.476;5.700;2023-04-03T06:38:54;2.40;99.90
58582;DHT22;44361;51.476;5.700;2023-04-03T06:41:20;2.40;99.90
58582;DHT22;44361;51.476;5.700;2023-04-03T06:43:46;2.50;99.90
58582;DHT22;44361;51.476;5.700;2023-04-03T06:46:16;2.60;99.90
58582;DHT22;44361;51.476;5.700;2023-04-03T06:48:43;2.70;99.90
58582;DHT22;44361;51.476;5.700;2023-04-03T06:51:22;2.70;99.90
58582;DHT22;44361;51.476;5.700;2023-04-03T06:53:48;2.80;99.90
58582;DHT22;44361;51.476;5.700;2023-04-03T06:56:14;2.90;99.90
58582;DHT22;44361;51.476;5.700;2023-04-03T06:58:40;2.90;99.90
58582;DHT22;44361;51.476;5.700;2023-04-03T07:01:07;3.00;99.90
58582;DHT22;44361;51.476;5.700;2023-04-03T07:03:33;3.10;99.90
58582;DHT22;44361;51.476;5.700;2023-04-03T07:05:58;3.20;99.90
58582;DHT22;44361;51.476;5.700;2023-04-03T07:08:24;3.20;99.90
58582;DHT22;44361;51.476;5.700;2023-04-03T07:10:51;3.40;99.90
58582;DHT22;44361;51.476;5.700;2023-04-03T07:13:16;3.40;99.90
58582;DHT22;44361;51.476;5.700;2023-04-03T07:15:42;3.40;99.90
58582;DHT22;44361;51.476;5.700;2023-04-03T07:18:07;3.40;99.90
58582;DHT22;44361;51.476;5.700;2023-04-03T07:20:33;3.50;99.90
58582;DHT22;44361;51.476;5.700;2023-04-03T07:22:59;3.60;99.90
58582;DHT22;44361;51.476;5.700;2023-04-03T07:25:25;3.70;99.90
58582;DHT22;44361;51.476;5.700;2023-04-03T07:27:50;3.70;99.90
58582;DHT22;44361;51.476;5.700;2023-04-03T07:30:16;3.80;99.90
58582;DHT22;44361;51.476;5.700;2023-04-03T07:32:41;3.80;99.80
58582;DHT22;44361;51.476;5.700;2023-04-03T07:35:07;3.90;99.90
58582;DHT22;44361;51.476;5.700;2023-04-03T07:37:33;4.00;99.90
58582;DHT22;44361;51.476;5.700;2023-04-03T07:39:58;4.20;99.90
58582;DHT22;44361;51.476;5.700;2023-04-03T07:42:25;4.30;99.60
58582;DHT22;44361;51.476;5.700;2023-04-03T07:44:53;4.30;99.70
58582;DHT22;44361;51.476;5.700;2023-04-03T07:47:19;4.30;98.50
58582;DHT22;44361;51.476;5.700;2023-04-03T07:49:45;4.60;99.90
58582;DHT22;44361;51.476;5.700;2023-04-03T07:52:11;4.60;98.10
58582;DHT22;44361;51.476;5.700;2023-04-03T07:54:37;4.60;98.20
58582;DHT22;44361;51.476;5.700;2023-04-03T07:57:03;4.70;98.50
58582;DHT22;44361;51.476;5.700;2023-04-03T07:59:28;4.70;97.90
58582;DHT22;44361;51.476;5.700;2023-04-03T08:01:54;4.70;97.40
58582;DHT22;44361;51.476;5.700;2023-04-03T08:04:19;4.90;97.10
58582;DHT22;44361;51.476;5.700;2023-04-03T08:06:45;4.90;97.00
58582;DHT22;44361;51.476;5.700;2023-04-03T08:09:10;4.80;95.90
58582;DHT22;44361;51.476;5.700;2023-04-03T08:11:39;4.90;95.20
58582;DHT22;44361;51.476;5.700;2023-04-03T08:14:04;5.00;94.60
58582;DHT22;44361;51.476;5.700;2023-04-03T08:16:30;5.00;94.70
58582;DHT22;44361;51.476;5.700;2023-04-03T08:18:55;5.10;95.00
58582;DHT22;44361;51.476;5.700;2023-04-03T08:21:21;5.10;94.80
58582;DHT22;44361;51.476;5.700;2023-04-03T08:23:48;5.30;95.50
58582;DHT22;44361;51.476;5.700;2023-04-03T08:26:17;5.40;94.60
58582;DHT22;44361;51.476;5.700;2023-04-03T08:28:43;5.50;92.90
58582;DHT22;44361;51.476;5.700;2023-04-03T08:31:12;5.70;92.60
58582;DHT22;44361;51.476;5.700;2023-04-03T08:33:39;5.80;93.80
58582;DHT22;44361;51.476;5.700;2023-04-03T08:36:08;5.80;90.10
58582;DHT22;44361;51.476;5.700;2023-04-03T08:38:40;5.60;89.40
58582;DHT22;44361;51.476;5.700;2023-04-03T08:43:46;5.70;89.20
58582;DHT22;44361;51.476;5.700;2023-04-03T08:46:20;5.80;91.10
58582;DHT22;44361;51.476;5.700;2023-04-03T08:48:49;6.10;89.40
58582;DHT22;44361;51.476;5.700;2023-04-03T08:51:18;6.10;85.40
58582;DHT22;44361;51.476;5.700;2023-04-03T08:54:02;6.30;86.60
58582;DHT22;44361;51.476;5.700;2023-04-03T08:56:30;6.40;84.20
58582;DHT22;44361;51.476;5.700;2023-04-03T08:58:59;6.40;82.80
58582;DHT22;44361;51.476;5.700;2023-04-03T09:01:37;6.40;76.80
58582;DHT22;44361;51.476;5.700;2023-04-03T09:04:10;6.40;75.80
58582;DHT22;44361;51.476;5.700;2023-04-03T09:06:38;6.40;76.40
58582;DHT22;44361;51.476;5.700;2023-04-03T09:11:58;6.40;71.30
58582;DHT22;44361;51.476;5.700;2023-04-03T09:14:38;6.60;71.70
58582;DHT22;44361;51.476;5.700;2023-04-03T09:17:13;6.50;68.30
58582;DHT22;44361;51.476;5.700;2023-04-03T09:22:44;6.80;69.30
58582;DHT22;44361;51.476;5.700;2023-04-03T09:27:40;7.00;66.40
58582;DHT22;44361;51.476;5.700;2023-04-03T09:30:11;7.10;64.60
58582;DHT22;44361;51.476;5.700;2023-04-03T09:32:37;7.00;65.80
58582;DHT22;44361;51.476;5.700;2023-04-03T09:40:47;7.30;57.50
58582;DHT22;44361;51.476;5.700;2023-04-03T09:43:28;7.50;59.20
58582;DHT22;44361;51.476;5.700;2023-04-03T09:45:56;7.50;58.80
58582;DHT22;44361;51.476;5.700;2023-04-03T09:48:25;7.70;58.40
58582;DHT22;44361;51.476;5.700;2023-04-03T09:50:56;7.70;58.80
58582;DHT22;44361;51.476;5.700;2023-04-03T09:53:38;7.90;59.10
58582;DHT22;44361;51.476;5.700;2023-04-03T09:56:19;7.60;54.60
58582;DHT22;44361;51.476;5.700;2023-04-03T10:01:40;7.60;55.10
58582;DHT22;44361;51.476;5.700;2023-04-03T10:06:47;7.60;50.10
58582;DHT22;44361;51.476;5.700;2023-04-03T10:09:28;7.50;50.30
58582;DHT22;44361;51.476;5.700;2023-04-03T10:12:08;7.50;50.90
58582;DHT22;44361;51.476;5.700;2023-04-03T10:17:43;7.70;50.10
58582;DHT22;44361;51.476;5.700;2023-04-03T10:34:48;7.90;43.60
58582;DHT22;44361;51.476;5.700;2023-04-03T10:37:25;7.90;44.20
58582;DHT22;44361;51.476;5.700;2023-04-03T10:40:09;7.80;45.90
58582;DHT22;44361;51.476;5.700;2023-04-03T10:45:46;8.00;43.90
58582;DHT22;44361;51.476;5.700;2023-04-03T10:48:48;7.90;41.70
58582;DHT22;44361;51.476;5.700;2023-04-03T10:53:52;8.20;43.20
58582;DHT22;44361;51.476;5.700;2023-04-03T10:58:52;8.20;41.50
58582;DHT22;44361;51.476;5.700;2023-04-03T11:01:27;8.10;40.80
58582;DHT22;44361;51.476;5.700;2023-04-03T11:03:57;8.10;40.20
58582;DHT22;44361;51.476;5.700;2023-04-03T11:06:26;8.00;42.40
58582;DHT22;44361;51.476;5.700;2023-04-03T11:09:00;8.20;42.10
58582;DHT22;44361;51.476;5.700;2023-04-03T11:11:34;8.10;40.60
58582;DHT22;44361;51.476;5.700;2023-04-03T11:14:50;8.00;38.10
58582;DHT22;44361;51.476;5.700;2023-04-03T11:17:21;8.20;40.80
58582;DHT22;44361;51.476;5.700;2023-04-03T11:20:14;8.40;40.60
58582;DHT22;44361;51.476;5.700;2023-04-03T11:22:45;8.20;41.60
58582;DHT22;44361;51.476;5.700;2023-04-03T11:27:45;8.50;42.10
58582;DHT22;44361;51.476;5.700;2023-04-03T11:30:28;8.40;39.50
58582;DHT22;44361;51.476;5.700;2023-04-03T11:33:05;8.40;41.30
58582;DHT22;44361;51.476;5.700;2023-04-03T11:35:36;8.60;40.40
58582;DHT22;44361;51.476;5.700;2023-04-03T11:38:03;8.70;42.70
58582;DHT22;44361;51.476;5.700;2023-04-03T11:40:33;8.80;43.00
58582;DHT22;44361;51.476;5.700;2023-04-03T11:45:27;8.40;39.60
58582;DHT22;44361;51.476;5.700;2023-04-03T11:47:58;8.60;44.30
58582;DHT22;44361;51.476;5.700;2023-04-03T11:53:00;8.60;38.20
58582;DHT22;44361;51.476;5.700;2023-04-03T12:08:53;8.80;41.10
58582;DHT22;44361;51.476;5.700;2023-04-03T12:11:33;8.90;43.90
58582;DHT22;44361;51.476;5.700;2023-04-03T12:14:04;9.00;39.80
58582;DHT22;44361;51.476;5.700;2023-04-03T12:40:16;9.30;43.50
58582;DHT22;44361;51.476;5.700;2023-04-03T12:46:03;9.40;43.30
58582;DHT22;44361;51.476;5.700;2023-04-03T12:48:32;9.20;42.40
58582;DHT22;44361;51.476;5.700;2023-04-03T12:50:59;9.10;42.90
58582;DHT22;44361;51.476;5.700;2023-04-03T12:53:32;9.10;42.90
58582;DHT22;44361;51.476;5.700;2023-04-03T12:58:44;9.30;42.70
58582;DHT22;44361;51.476;5.700;2023-04-03T13:01:15;9.40;43.40
58582;DHT22;44361;51.476;5.700;2023-04-03T13:03:48;9.50;44.10
58582;DHT22;44361;51.476;5.700;2023-04-03T13:06:26;9.40;46.60
58582;DHT22;44361;51.476;5.700;2023-04-03T13:08:55;9.40;43.50
58582;DHT22;44361;51.476;5.700;2023-04-03T13:11:23;9.40;44.60
58582;DHT22;44361;51.476;5.700;2023-04-03T13:14:01;9.40;43.50
58582;DHT22;44361;51.476;5.700;2023-04-03T13:16:29;9.50;44.00
58582;DHT22;44361;51.476;5.700;2023-04-03T13:18:55;9.50;44.70
58582;DHT22;44361;51.476;5.700;2023-04-03T13:21:30;9.70;46.90
58582;DHT22;44361;51.476;5.700;2023-04-03T13:24:01;9.60;44.50
58582;DHT22;44361;51.476;5.700;2023-04-03T13:26:31;9.50;43.90
58582;DHT22;44361;51.476;5.700;2023-04-03T13:29:07;9.70;45.00
58582;DHT22;44361;51.476;5.700;2023-04-03T13:31:42;9.70;45.60
58582;DHT22;44361;51.476;5.700;2023-04-03T13:36:40;9.60;44.20
58582;DHT22;44361;51.476;5.700;2023-04-03T13:41:38;9.20;43.60
58582;DHT22;44361;51.476;5.700;2023-04-03T13:46:53;9.30;44.80
58582;DHT22;44361;51.476;5.700;2023-04-03T13:51:55;9.20;46.10
58582;DHT22;44361;51.476;5.700;2023-04-03T13:54:32;9.20;46.80
58582;DHT22;44361;51.476;5.700;2023-04-03T13:57:00;9.40;47.50
58582;DHT22;44361;51.476;5.700;2023-04-03T13:59:33;9.70;47.40
58582;DHT22;44361;51.476;5.700;2023-04-03T14:04:30;9.50;45.20
58582;DHT22;44361;51.476;5.700;2023-04-03T14:06:57;9.40;44.30
58582;DHT22;44361;51.476;5.700;2023-04-03T14:09:24;9.40;45.20
58582;DHT22;44361;51.476;5.700;2023-04-03T14:12:02;9.50;44.20
58582;DHT22;44361;51.476;5.700;2023-04-03T14:14:32;9.50;45.80
58582;DHT22;44361;51.476;5.700;2023-04-03T14:17:01;9.50;47.10
58582;DHT22;44361;51.476;5.700;2023-04-03T14:19:30;9.50;44.70
58582;DHT22;44361;51.476;5.700;2023-04-03T14:21:58;9.50;45.70
58582;DHT22;44361;51.476;5.700;2023-04-03T14:24:24;9.50;46.20
58582;DHT22;44361;51.476;5.700;2023-04-03T14:26:52;9.50;46.30
58582;DHT22;44361;51.476;5.700;2023-04-03T14:29:19;9.40;46.10
58582;DHT22;44361;51.476;5.700;2023-04-03T14:31:46;9.40;45.00
58582;DHT22;44361;51.476;5.700;2023-04-03T14:34:13;9.40;44.40
58582;DHT22;44361;51.476;5.700;2023-04-03T14:36:40;9.20;44.20
58582;DHT22;44361;51.476;5.700;2023-04-03T14:39:08;9.20;45.10
58582;DHT22;44361;51.476;5.700;2023-04-03T14:41:34;9.50;46.50
58582;DHT22;44361;51.476;5.700;2023-04-03T14:44:00;9.50;46.90
58582;DHT22;44361;51.476;5.700;2023-04-03T14:46:35;9.50;46.70
58582;DHT22;44361;51.476;5.700;2023-04-03T14:49:02;9.60;47.90
58582;DHT22;44361;51.476;5.700;2023-04-03T14:51:27;9.50;47.90
58582;DHT22;44361;51.476;5.700;2023-04-03T14:53:53;9.60;47.70
58582;DHT22;44361;51.476;5.700;2023-04-03T14:56:22;9.50;48.80
58582;DHT22;44361;51.476;5.700;2023-04-03T14:58:49;9.50;46.30
58582;DHT22;44361;51.476;5.700;2023-04-03T15:01:18;9.50;47.00
58582;DHT22;44361;51.476;5.700;2023-04-03T15:03:44;9.40;45.70
58582;DHT22;44361;51.476;5.700;2023-04-03T15:06:13;9.40;46.10
58582;DHT22;44361;51.476;5.700;2023-04-03T15:08:41;9.40;45.30
58582;DHT22;44361;51.476;5.700;2023-04-03T15:11:08;9.40;46.10
58582;DHT22;44361;51.476;5.700;2023-04-03T15:13:35;9.30;45.50
58582;DHT22;44361;51.476;5.700;2023-04-03T15:16:00;9.30;48.00
58582;DHT22;44361;51.476;5.700;2023-04-03T15:18:27;9.40;46.70
58582;DHT22;44361;51.476;5.700;2023-04-03T15:20:56;9.40;47.00
58582;DHT22;44361;51.476;5.700;2023-04-03T15:23:22;9.50;49.30
58582;DHT22;44361;51.476;5.700;2023-04-03T15:25:52;9.60;47.40
58582;DHT22;44361;51.476;5.700;2023-04-03T15:28:33;9.50;48.10
58582;DHT22;44361;51.476;5.700;2023-04-03T15:31:05;9.50;46.40
58582;DHT22;44361;51.476;5.700;2023-04-03T15:33:31;9.40;47.00
58582;DHT22;44361;51.476;5.700;2023-04-03T15:35:57;9.40;47.20
58582;DHT22;44361;51.476;5.700;2023-04-03T15:38:23;9.30;46.90
58582;DHT22;44361;51.476;5.700;2023-04-03T15:40:49;9.40;47.90
58582;DHT22;44361;51.476;5.700;2023-04-03T15:43:15;9.30;47.30
58582;DHT22;44361;51.476;5.700;2023-04-03T15:45:41;9.40;48.10
58582;DHT22;44361;51.476;5.700;2023-04-03T15:48:08;9.30;46.30
58582;DHT22;44361;51.476;5.700;2023-04-03T15:50:34;9.40;48.80
58582;DHT22;44361;51.476;5.700;2023-04-03T15:53:00;9.50;47.40
58582;DHT22;44361;51.476;5.700;2023-04-03T15:55:28;9.30;46.00
58582;DHT22;44361;51.476;5.700;2023-04-03T15:57:54;9.20;46.10
58582;DHT22;44361;51.476;5.700;2023-04-03T16:00:21;9.20;46.30
58582;DHT22;44361;51.476;5.700;2023-04-03T16:02:49;9.20;47.10
58582;DHT22;44361;51.476;5.700;2023-04-03T16:05:16;9.10;46.90
58582;DHT22;44361;51.476;5.700;2023-04-03T16:07:43;9.10;48.30
58582;DHT22;44361;51.476;5.700;2023-04-03T16:10:10;9.20;47.60
58582;DHT22;44361;51.476;5.700;2023-04-03T16:12:36;9.10;46.90
58582;DHT22;44361;51.476;5.700;2023-04-03T16:15:03;9.20;48.40
58582;DHT22;44361;51.476;5.700;2023-04-03T16:17:28;9.20;48.80
58582;DHT22;44361;51.476;5.700;2023-04-03T16:19:55;9.10;48.10
58582;DHT22;44361;51.476;5.700;2023-04-03T16:22:22;9.00;47.50
58582;DHT22;44361;51.476;5.700;2023-04-03T16:24:49;9.00;47.50
58582;DHT22;44361;51.476;5.700;2023-04-03T16:27:15;8.90;47.00
58582;DHT22;44361;51.476;5.700;2023-04-03T16:29:40;8.80;46.30
58582;DHT22;44361;51.476;5.700;2023-04-03T16:32:06;8.80;46.90
58582;DHT22;44361;51.476;5.700;2023-04-03T16:34:32;8.80;47.80
58582;DHT22;44361;51.476;5.700;2023-04-03T16:36:58;8.80;48.90
58582;DHT22;44361;51.476;5.700;2023-04-03T16:39:23;8.80;49.70
58582;DHT22;44361;51.476;5.700;2023-04-03T16:41:49;8.80;51.30
58582;DHT22;44361;51.476;5.700;2023-04-03T16:44:15;8.80;48.00
58582;DHT22;44361;51.476;5.700;2023-04-03T16:46:40;8.60;48.50
58582;DHT22;44361;51.476;5.700;2023-04-03T16:49:06;8.60;48.60
58582;DHT22;44361;51.476;5.700;2023-04-03T16:51:32;8.60;48.60
58582;DHT22;44361;51.476;5.700;2023-04-03T16:53:57;8.50;49.20
58582;DHT22;44361;51.476;5.700;2023-04-03T16:56:23;8.50;50.50
58582;DHT22;44361;51.476;5.700;2023-04-03T16:58:49;8.40;50.20
58582;DHT22;44361;51.476;5.700;2023-04-03T17:01:17;8.30;49.70
58582;DHT22;44361;51.476;5.700;2023-04-03T17:03:43;8.30;49.80
58582;DHT22;44361;51.476;5.700;2023-04-03T17:06:11;8.20;49.30
58582;DHT22;44361;51.476;5.700;2023-04-03T17:08:42;8.10;51.20
58582;DHT22;44361;51.476;5.700;2023-04-03T17:11:08;8.10;50.40
58582;DHT22;44361;51.476;5.700;2023-04-03T17:13:34;8.10;50.70
58582;DHT22;44361;51.476;5.700;2023-04-03T17:16:00;8.00;51.40
58582;DHT22;44361;51.476;5.700;2023-04-03T17:18:28;8.10;51.40
58582;DHT22;44361;51.476;5.700;2023-04-03T17:20:55;8.00;51.30
58582;DHT22;44361;51.476;5.700;2023-04-03T17:23:20;8.00;51.70
58582;DHT22;44361;51.476;5.700;2023-04-03T17:25:46;7.90;51.80
58582;DHT22;44361;51.476;5.700;2023-04-03T17:28:11;7.90;52.10
58582;DHT22;44361;51.476;5.700;2023-04-03T17:30:37;7.80;50.90
58582;DHT22;44361;51.476;5.700;2023-04-03T17:33:03;7.80;51.00
58582;DHT22;44361;51.476;5.700;2023-04-03T17:35:29;7.70;50.20
58582;DHT22;44361;51.476;5.700;2023-04-03T17:37:55;7.70;50.50
58582;DHT22;44361;51.476;5.700;2023-04-03T17:40:21;7.60;51.00
58582;DHT22;44361;51.476;5.700;2023-04-03T17:42:46;7.60;51.50
58582;DHT22;44361;51.476;5.700;2023-04-03T17:45:12;7.50;52.00